createdAt,value
2019-03-29T00:01:09.321Z,6.03
2019-03-29T00:05:12.742Z,1.97
2019-03-29T00:09:16.105Z,2.67
2019-03-29T00:13:19.418Z,2.13
2019-03-29T00:17:22.929Z,2.27
2019-03-29T00:21:26.261Z,2.47
2019-03-29T00:25:30.838Z,1.40
2019-03-29T00:29:34.134Z,1.97
2019-03-29T00:33:37.701Z,2.23
2019-03-29T00:37:53.004Z,3.63
2019-03-29T00:41:46.636Z,3.23
2019-03-29T00:45:49.955Z,1.40
2019-03-29T00:49:53.660Z,3.67
2019-03-29T00:53:56.955Z,1.93
2019-03-29T00:58:00.383Z,1.30
2019-03-29T01:02:03.692Z,5.37
2019-03-29T01:06:07.089Z,2.80
2019-03-29T01:10:12.580Z,3.17
2019-03-29T01:14:16.826Z,4.63
2019-03-29T01:18:20.254Z,0.60
2019-03-29T01:22:23.660Z,2.43
2019-03-29T01:26:27.181Z,2.20
2019-03-29T01:30:30.855Z,4.80
2019-03-29T01:34:34.158Z,2.23
2019-03-29T01:38:37.557Z,4.10
2019-03-29T01:42:42.849Z,1.53
2019-03-29T01:46:46.282Z,2.70
2019-03-29T01:50:51.660Z,3.90
2019-03-29T01:54:55.213Z,4.93
2019-03-29T01:58:58.518Z,4.93
2019-03-29T02:03:01.921Z,2.77
2019-03-29T02:07:05.217Z,2.73
2019-03-29T02:11:08.687Z,4.33
2019-03-29T02:15:12.262Z,1.17
2019-03-29T02:19:15.740Z,1.57
2019-03-29T02:23:19.556Z,4.33
2019-03-29T02:27:23.172Z,3.90
2019-03-29T02:31:28.761Z,7.07
2019-03-29T02:35:31.590Z,9.50
2019-03-29T02:39:34.900Z,0.93
2019-03-29T02:43:38.707Z,5.33
2019-03-29T02:47:42.316Z,3.10
2019-03-29T02:51:46.107Z,3.70
2019-03-29T02:55:49.425Z,4.07
2019-03-29T02:59:52.814Z,2.33
2019-03-29T03:03:56.390Z,5.87
2019-03-29T03:07:59.708Z,3.63
2019-03-29T03:12:03.020Z,3.57
2019-03-29T03:16:06.719Z,5.57
2019-03-29T03:20:14.955Z,2.07
2019-03-29T03:24:17.424Z,1.47
2019-03-29T03:28:20.719Z,7.13
2019-03-29T03:32:24.173Z,8.97
2019-03-29T03:36:28.818Z,3.57
2019-03-29T03:40:32.492Z,2.30
2019-03-29T03:44:36.824Z,3.23
2019-03-29T03:48:40.443Z,5.37
2019-03-29T03:52:43.789Z,2.10
2019-03-29T03:56:48.879Z,7.60
2019-03-29T04:00:59.460Z,2.77
2019-03-29T04:05:02.838Z,1.80
2019-03-29T04:09:07.903Z,10.07
2019-03-29T04:13:11.332Z,5.57
2019-03-29T04:17:14.667Z,5.43
2019-03-29T04:21:18.042Z,3.50
2019-03-29T04:25:21.413Z,4.80
2019-03-29T04:29:24.827Z,2.93
2019-03-29T04:33:28.141Z,1.40
2019-03-29T04:37:31.582Z,3.07
2019-03-29T04:41:34.972Z,7.57
2019-03-29T04:45:38.520Z,1.77
2019-03-29T04:49:41.845Z,2.63
2019-03-29T04:53:45.233Z,3.53
2019-03-29T04:57:48.732Z,5.07
2019-03-29T05:01:52.148Z,3.13
2019-03-29T05:05:56.042Z,3.77
2019-03-29T05:09:59.448Z,4.83
2019-03-29T05:14:02.748Z,1.23
2019-03-29T05:18:06.234Z,1.87
2019-03-29T05:22:09.648Z,1.30
2019-03-29T05:26:13.067Z,6.27
2019-03-29T05:30:16.563Z,4.07
2019-03-29T05:34:20.013Z,2.07
2019-03-29T05:38:23.488Z,3.43
2019-03-29T05:42:27.493Z,1.23
2019-03-29T05:46:31.366Z,0.60
2019-03-29T05:50:36.801Z,2.57
2019-03-29T05:54:40.509Z,4.03
2019-03-29T05:58:44.345Z,1.70
2019-03-29T06:02:47.613Z,2.17
2019-03-29T06:06:50.933Z,1.50
2019-03-29T06:10:54.229Z,4.70
2019-03-29T06:14:57.561Z,2.17
2019-03-29T06:19:00.827Z,2.10
2019-03-29T06:23:04.722Z,2.83
2019-03-29T06:27:08.519Z,0.40
2019-03-29T06:31:12.084Z,1.70
2019-03-29T06:35:15.446Z,2.73
2019-03-29T06:39:21.404Z,8.87
2019-03-29T06:43:24.782Z,3.80
2019-03-29T06:47:29.848Z,3.73
2019-03-29T06:51:33.142Z,1.50
2019-03-29T06:55:36.660Z,0.60
2019-03-29T06:59:40.030Z,1.77
2019-03-29T07:03:43.550Z,3.67
2019-03-29T07:07:47.053Z,2.97
2019-03-29T07:11:50.355Z,4.10
2019-03-29T07:15:53.920Z,1.70
2019-03-29T07:19:57.238Z,1.73
2019-03-29T07:24:00.587Z,1.80
2019-03-29T07:28:04.084Z,1.57
2019-03-29T07:32:07.360Z,1.17
2019-03-29T07:36:10.746Z,3.97
2019-03-29T07:40:14.283Z,1.80
2019-03-29T07:44:17.660Z,1.80
2019-03-29T07:48:21.205Z,1.83
2019-03-29T07:52:25.768Z,2.67
2019-03-29T07:56:29.426Z,1.23
2019-03-29T08:00:32.775Z,1.77
2019-03-29T08:04:36.027Z,0.37
2019-03-29T08:08:39.419Z,2.67
2019-03-29T08:12:43.041Z,5.23
2019-03-29T08:16:46.387Z,2.43
2019-03-29T08:20:49.645Z,0.83
2019-03-29T08:24:52.989Z,2.07
2019-03-29T08:28:56.300Z,3.17
2019-03-29T08:32:59.633Z,2.20
2019-03-29T08:37:02.865Z,0.93
2019-03-29T08:41:06.282Z,1.07
2019-03-29T08:45:09.624Z,1.37
2019-03-29T08:49:16.544Z,1.27
2019-03-29T08:53:18.070Z,0.73
2019-03-29T08:57:21.603Z,3.53
2019-03-29T09:01:24.896Z,3.50
2019-03-29T09:05:29.324Z,6.33
2019-03-29T09:09:32.587Z,0.43
2019-03-29T09:13:35.927Z,1.43
2019-03-29T09:17:39.473Z,1.03
2019-03-29T09:21:42.845Z,2.53
2019-03-29T09:25:46.239Z,4.03
2019-03-29T09:29:49.927Z,2.03
2019-03-29T09:33:53.215Z,2.27
2019-03-29T09:37:57.649Z,5.80
2019-03-29T09:42:01.107Z,1.87
2019-03-29T09:46:04.462Z,4.70
2019-03-29T09:50:10.600Z,2.40
2019-03-29T09:54:15.117Z,2.50
2019-03-29T09:58:18.426Z,1.03
2019-03-29T10:02:21.806Z,2.73
2019-03-29T10:06:25.096Z,1.03
2019-03-29T10:10:28.419Z,2.13
2019-03-29T10:14:33.465Z,2.03
2019-03-29T10:18:36.991Z,1.30
2019-03-29T10:22:40.488Z,1.53
2019-03-29T10:26:43.979Z,1.80
2019-03-29T10:30:47.337Z,2.20
2019-03-29T10:34:50.879Z,1.77
2019-03-29T10:38:55.540Z,3.60
2019-03-29T10:42:59.251Z,2.43
2019-03-29T10:47:04.041Z,2.57
2019-03-29T10:51:08.561Z,2.97
2019-03-29T10:55:14.844Z,1.03
2019-03-29T10:59:27.328Z,6.50
2019-03-29T11:03:23.496Z,2.37
2019-03-29T11:07:26.876Z,2.20
2019-03-29T11:11:30.156Z,3.70
2019-03-29T11:15:33.731Z,6.90
2019-03-29T11:19:38.011Z,2.23
2019-03-29T11:23:41.341Z,3.13
2019-03-29T11:27:44.616Z,3.47
2019-03-29T11:31:47.971Z,3.70
2019-03-29T11:35:51.231Z,3.70
2019-03-29T11:39:54.757Z,6.37
2019-03-29T11:43:58.090Z,8.83
2019-03-29T11:48:08.937Z,4.60
2019-03-29T11:52:08.022Z,3.13
2019-03-29T11:56:11.406Z,2.00
2019-03-29T12:00:15.378Z,5.23
2019-03-29T12:04:19.341Z,5.87
2019-03-29T12:08:22.661Z,1.13
2019-03-29T12:12:27.584Z,2.80
2019-03-29T12:16:31.313Z,9.07
2019-03-29T12:20:34.812Z,4.97
2019-03-29T12:24:38.106Z,1.23
2019-03-29T12:28:41.795Z,2.73
2019-03-29T12:32:45.077Z,4.40
2019-03-29T12:36:51.230Z,2.80
2019-03-29T12:40:54.547Z,3.57
2019-03-29T12:44:58.042Z,4.10
2019-03-29T12:49:01.489Z,3.07
2019-03-29T12:53:05.177Z,6.77
2019-03-29T12:57:08.476Z,4.93
2019-03-29T13:01:12.082Z,2.80
2019-03-29T13:05:15.549Z,7.70
2019-03-29T13:09:19.083Z,6.03
2019-03-29T13:13:22.513Z,3.10
2019-03-29T13:17:28.451Z,6.10
2019-03-29T13:21:30.965Z,3.33
2019-03-29T13:25:34.643Z,5.03
2019-03-29T13:29:37.999Z,3.17
2019-03-29T13:33:41.391Z,2.50
2019-03-29T13:37:44.717Z,3.93
2019-03-29T13:41:48.116Z,1.57
2019-03-29T13:45:51.559Z,5.33
2019-03-29T13:49:54.911Z,3.77
2019-03-29T13:53:58.192Z,8.57
2019-03-29T13:58:01.821Z,2.13
2019-03-29T14:02:05.227Z,6.40
2019-03-29T14:06:08.550Z,8.10
2019-03-29T14:10:12.427Z,5.30
2019-03-29T14:14:15.766Z,4.60
2019-03-29T14:18:19.044Z,5.43
2019-03-29T14:22:22.420Z,2.93
2019-03-29T14:26:25.680Z,5.57
2019-03-29T14:30:29.043Z,3.27
2019-03-29T14:34:32.321Z,3.00
2019-03-29T14:38:35.696Z,1.87
2019-03-29T14:42:39.242Z,6.20
2019-03-29T14:46:42.611Z,11.23
2019-03-29T14:50:45.955Z,3.30
2019-03-29T14:54:49.330Z,3.90
2019-03-29T14:58:53.076Z,5.07
2019-03-29T15:02:56.412Z,3.57
2019-03-29T15:06:59.781Z,5.60
2019-03-29T15:11:03.147Z,3.90
2019-03-29T15:15:07.309Z,4.73
2019-03-29T15:19:10.827Z,4.30
2019-03-29T15:23:14.091Z,6.50
2019-03-29T15:27:17.462Z,2.47
2019-03-29T15:31:20.738Z,2.23
2019-03-29T15:35:24.089Z,5.73
2019-03-29T15:39:31.994Z,4.43
2019-03-29T15:43:36.263Z,2.67
2019-03-29T15:47:41.554Z,2.53
2019-03-29T15:51:44.893Z,3.33
2019-03-29T15:55:48.267Z,3.90
2019-03-29T15:59:52.656Z,5.90
2019-03-29T16:03:57.696Z,4.80
2019-03-29T16:08:02.570Z,4.87
2019-03-29T16:12:06.689Z,3.10
2019-03-29T16:16:11.006Z,4.00
2019-03-29T16:20:14.527Z,4.30
2019-03-29T16:24:18.275Z,2.30
2019-03-29T16:28:21.585Z,5.03
2019-03-29T16:32:25.529Z,7.70
2019-03-29T16:36:29.045Z,2.67
2019-03-29T16:40:32.569Z,6.70
2019-03-29T16:44:36.327Z,4.20
2019-03-29T16:48:39.775Z,4.67
2019-03-29T16:52:45.556Z,2.63
2019-03-29T16:56:49.137Z,5.03
2019-03-29T17:00:53.863Z,8.43
2019-03-29T17:04:57.398Z,6.13
2019-03-29T17:09:00.966Z,6.07
2019-03-29T17:13:05.881Z,7.33
2019-03-29T17:17:09.288Z,5.00
2019-03-29T17:21:13.728Z,4.00
2019-03-29T17:25:17.260Z,5.30
2019-03-29T17:29:20.741Z,4.87
2019-03-29T17:33:24.078Z,4.10
2019-03-29T17:37:27.456Z,6.47
2019-03-29T17:41:31.824Z,5.07
2019-03-29T17:45:35.166Z,7.87
2019-03-29T17:49:38.545Z,9.70
2019-03-29T17:53:41.903Z,8.80
2019-03-29T17:57:45.438Z,8.63
2019-03-29T18:01:49.598Z,3.67
2019-03-29T18:05:53.308Z,9.67
2019-03-29T18:09:57.503Z,9.53
2019-03-29T18:14:01.418Z,9.03
2019-03-29T18:18:05.172Z,12.30
2019-03-29T18:22:08.802Z,9.10
2019-03-29T18:26:12.446Z,5.57
2019-03-29T18:30:16.466Z,10.00
2019-03-29T18:34:19.889Z,5.70
2019-03-29T18:38:23.263Z,11.60
2019-03-29T18:42:26.894Z,8.53
2019-03-29T18:46:43.657Z,8.70
2019-03-29T18:50:35.370Z,5.70
2019-03-29T18:54:38.669Z,8.97
2019-03-29T18:58:42.029Z,7.07
2019-03-29T19:02:45.684Z,13.20
2019-03-29T19:06:49.057Z,7.83
2019-03-29T19:10:52.376Z,9.63
2019-03-29T19:14:55.765Z,11.87
2019-03-29T19:19:09.459Z,8.37
2019-03-29T19:23:04.257Z,9.33
2019-03-29T19:27:07.544Z,7.53
2019-03-29T19:31:11.074Z,11.20
2019-03-29T19:35:14.512Z,8.93
2019-03-29T19:39:17.873Z,8.10
2019-03-29T19:43:21.190Z,12.47
2019-03-29T19:47:24.699Z,9.80
2019-03-29T19:51:27.978Z,14.13
2019-03-29T19:55:31.395Z,10.03
2019-03-29T19:59:34.881Z,12.83
2019-03-29T20:03:39.053Z,13.07
2019-03-29T20:07:42.420Z,11.33
2019-03-29T20:11:45.868Z,11.27
2019-03-29T20:15:49.110Z,11.13
2019-03-29T20:19:52.434Z,7.67
2019-03-29T20:23:55.696Z,13.57
2019-03-29T20:27:59.124Z,12.33
2019-03-29T20:32:03.486Z,8.50
2019-03-29T20:36:07.051Z,8.33
2019-03-29T20:40:10.503Z,9.50
2019-03-29T20:44:14.222Z,14.97
2019-03-29T20:48:17.523Z,12.87
2019-03-29T20:52:20.886Z,14.20
2019-03-29T20:56:24.191Z,11.10
2019-03-29T21:00:27.536Z,10.60
2019-03-29T21:04:31.058Z,15.23
2019-03-29T21:08:34.449Z,8.57
2019-03-29T21:12:37.902Z,10.30
2019-03-29T21:16:41.244Z,10.40
2019-03-29T21:20:44.590Z,12.00
2019-03-29T21:24:48.158Z,14.73
2019-03-29T21:28:52.878Z,15.30
2019-03-29T21:32:57.231Z,21.23
2019-03-29T21:37:00.670Z,9.23
2019-03-29T21:41:04.276Z,16.20
2019-03-29T21:45:09.117Z,20.83
2019-03-29T21:49:12.510Z,8.73
2019-03-29T21:53:15.815Z,11.53
2019-03-29T21:57:19.140Z,9.23
2019-03-29T22:01:23.449Z,10.70
2019-03-29T22:05:26.841Z,14.37
2019-03-29T22:09:36.823Z,9.20
2019-03-29T22:13:35.161Z,18.40
2019-03-29T22:17:38.486Z,12.03
2019-03-29T22:21:41.846Z,12.57
2019-03-29T22:25:45.122Z,13.87
2019-03-29T22:29:48.482Z,8.23
2019-03-29T22:33:51.973Z,10.07
2019-03-29T22:37:55.585Z,9.57
2019-03-29T22:41:59.103Z,13.57
2019-03-29T22:46:02.691Z,15.47
2019-03-29T22:50:07.486Z,11.37
2019-03-29T22:54:10.966Z,18.50
2019-03-29T22:58:14.227Z,17.43
2019-03-29T23:02:18.284Z,16.27
2019-03-29T23:06:23.262Z,12.63
2019-03-29T23:10:26.932Z,12.93
2019-03-29T23:14:30.447Z,13.30
2019-03-29T23:18:34.046Z,9.73
2019-03-29T23:22:37.307Z,16.80
2019-03-29T23:26:40.736Z,11.80
2019-03-29T23:30:45.114Z,10.83
2019-03-29T23:34:48.510Z,13.77
2019-03-29T23:38:51.777Z,19.80
2019-03-29T23:42:55.153Z,14.30
2019-03-29T23:46:58.419Z,22.67
2019-03-29T23:51:01.762Z,12.00
2019-03-29T23:55:07.055Z,20.87
2019-03-29T23:59:10.570Z,17.37
